sensor_id;sensor_type;location;lat;lon;timestamp;temperature;humidity
45685;DHT22;46836;48.388;16.210;2023-10-13T00:02:11;18.00;99.90
45685;DHT22;46836;48.388;16.210;2023-10-13T00:04:38;18.00;99.90
45685;DHT22;46836;48.388;16.210;2023-10-13T00:07:06;17.90;99.90
45685;DHT22;46836;48.388;16.210;2023-10-13T00:09:36;17.80;99.90
45685;DHT22;46836;48.388;16.210;2023-10-13T00:12:05;17.80;99.90
45685;DHT22;46836;48.388;16.210;2023-10-13T00:14:37;17.80;99.90
45685;DHT22;46836;48.388;16.210;2023-10-13T00:17:05;17.80;99.90
45685;DHT22;46836;48.388;16.210;2023-10-13T00:19:43;17.70;99.90
45685;DHT22;46836;48.388;16.210;2023-10-13T00:22:15;17.60;99.90
45685;DHT22;46836;48.388;16.210;2023-10-13T00:24:44;17.70;99.90
45685;DHT22;46836;48.388;16.210;2023-10-13T00:27:17;17.60;99.90
45685;DHT22;46836;48.388;16.210;2023-10-13T00:30:05;17.60;99.90
45685;DHT22;46836;48.388;16.210;2023-10-13T00:32:52;17.60;99.90
45685;DHT22;46836;48.388;16.210;2023-10-13T00:35:27;17.60;99.90
45685;DHT22;46836;48.388;16.210;2023-10-13T00:37:56;17.70;99.90
45685;DHT22;46836;48.388;16.210;2023-10-13T00:40:32;17.70;99.90
45685;DHT22;46836;48.388;16.210;2023-10-13T00:43:01;17.70;99.90
45685;DHT22;46836;48.388;16.210;2023-10-13T00:45:49;17.70;99.90
45685;DHT22;46836;48.388;16.210;2023-10-13T00:48:26;17.70;99.90
45685;DHT22;46836;48.388;16.210;2023-10-13T00:51:02;17.70;99.90
45685;DHT22;46836;48.388;16.210;2023-10-13T00:53:31;17.70;99.90
45685;DHT22;46836;48.388;16.210;2023-10-13T00:56:01;17.70;99.90
45685;DHT22;46836;48.388;16.210;2023-10-13T00:58:35;17.70;99.90
45685;DHT22;46836;48.388;16.210;2023-10-13T01:01:02;17.70;99.90
45685;DHT22;46836;48.388;16.210;2023-10-13T01:03:47;17.70;99.90
45685;DHT22;46836;48.388;16.210;2023-10-13T01:06:23;17.80;99.90
45685;DHT22;46836;48.388;16.210;2023-10-13T01:09:07;17.80;99.90
45685;DHT22;46836;48.388;16.210;2023-10-13T01:11:50;17.70;99.90
45685;DHT22;46836;48.388;16.210;2023-10-13T01:14:21;17.70;99.90
45685;DHT22;46836;48.388;16.210;2023-10-13T01:16:48;17.70;99.90
45685;DHT22;46836;48.388;16.210;2023-10-13T01:19:20;17.70;99.90
45685;DHT22;46836;48.388;16.210;2023-10-13T01:21:52;17.70;99.90
45685;DHT22;46836;48.388;16.210;2023-10-13T01:24:30;17.70;99.90
45685;DHT22;46836;48.388;16.210;2023-10-13T01:27:05;17.70;99.90
45685;DHT22;46836;48.388;16.210;2023-10-13T01:29:48;17.70;99.90
45685;DHT22;46836;48.388;16.210;2023-10-13T01:32:19;17.70;99.90
45685;DHT22;46836;48.388;16.210;2023-10-13T01:34:47;17.60;99.90
45685;DHT22;46836;48.388;16.210;2023-10-13T01:37:16;17.60;99.90
45685;DHT22;46836;48.388;16.210;2023-10-13T01:39:43;17.60;99.90
45685;DHT22;46836;48.388;16.210;2023-10-13T01:42:17;17.60;99.90
45685;DHT22;46836;48.388;16.210;2023-10-13T01:44:49;17.60;99.90
45685;DHT22;46836;48.388;16.210;2023-10-13T01:47:17;17.60;99.90
45685;DHT22;46836;48.388;16.210;2023-10-13T01:49:44;17.50;99.90
45685;DHT22;46836;48.388;16.210;2023-10-13T01:52:17;17.60;99.90
45685;DHT22;46836;48.388;16.210;2023-10-13T01:54:46;17.60;99.90
45685;DHT22;46836;48.388;16.210;2023-10-13T01:57:16;17.60;99.90
45685;DHT22;46836;48.388;16.210;2023-10-13T01:59:51;17.60;99.90
45685;DHT22;46836;48.388;16.210;2023-10-13T02:02:18;17.60;99.90
45685;DHT22;46836;48.388;16.210;2023-10-13T02:04:56;17.60;99.90
45685;DHT22;46836;48.388;16.210;2023-10-13T02:07:28;17.60;99.90
45685;DHT22;46836;48.388;16.210;2023-10-13T02:10:02;17.60;99.90
45685;DHT22;46836;48.388;16.210;2023-10-13T02:12:32;17.60;99.90
45685;DHT22;46836;48.388;16.210;2023-10-13T02:15:12;17.50;99.90
45685;DHT22;46836;48.388;16.210;2023-10-13T02:17:48;17.50;99.90
45685;DHT22;46836;48.388;16.210;2023-10-13T02:20:19;17.50;99.90
45685;DHT22;46836;48.388;16.210;2023-10-13T02:22:49;17.60;99.90
45685;DHT22;46836;48.388;16.210;2023-10-13T02:25:18;17.60;99.90
45685;DHT22;46836;48.388;16.210;2023-10-13T02:28:04;17.50;99.90
45685;DHT22;46836;48.388;16.210;2023-10-13T02:30:44;17.50;99.90
45685;DHT22;46836;48.388;16.210;2023-10-13T02:33:13;17.50;99.90
45685;DHT22;46836;48.388;16.210;2023-10-13T02:35:40;17.50;99.90
45685;DHT22;46836;48.388;16.210;2023-10-13T02:38:17;17.50;99.90
45685;DHT22;46836;48.388;16.210;2023-10-13T02:40:54;17.50;99.90
45685;DHT22;46836;48.388;16.210;2023-10-13T02:43:23;17.50;99.90
45685;DHT22;46836;48.388;16.210;2023-10-13T02:45:55;17.50;99.90
45685;DHT22;46836;48.388;16.210;2023-10-13T02:48:26;17.50;99.90
45685;DHT22;46836;48.388;16.210;2023-10-13T02:51:07;17.50;99.90
45685;DHT22;46836;48.388;16.210;2023-10-13T02:53:55;17.40;99.90
45685;DHT22;46836;48.388;16.210;2023-10-13T02:56:29;17.40;99.90
45685;DHT22;46836;48.388;16.210;2023-10-13T02:58:56;17.50;99.90
45685;DHT22;46836;48.388;16.210;2023-10-13T03:01:23;17.50;99.90
45685;DHT22;46836;48.388;16.210;2023-10-13T03:03:56;17.50;99.90
45685;DHT22;46836;48.388;16.210;2023-10-13T03:06:26;17.50;99.90
45685;DHT22;46836;48.388;16.210;2023-10-13T03:09:06;17.50;99.90
45685;DHT22;46836;48.388;16.210;2023-10-13T03:11:49;17.50;99.90
45685;DHT22;46836;48.388;16.210;2023-10-13T03:14:23;17.50;99.90
45685;DHT22;46836;48.388;16.210;2023-10-13T03:16:53;17.50;99.90
45685;DHT22;46836;48.388;16.210;2023-10-13T03:19:21;17.50;99.90
45685;DHT22;46836;48.388;16.210;2023-10-13T03:21:49;17.40;99.90
45685;DHT22;46836;48.388;16.210;2023-10-13T03:24:22;17.40;99.90
45685;DHT22;46836;48.388;16.210;2023-10-13T03:27:03;17.40;99.90
45685;DHT22;46836;48.388;16.210;2023-10-13T03:29:40;17.40;99.90
45685;DHT22;46836;48.388;16.210;2023-10-13T03:32:11;17.40;99.90
45685;DHT22;46836;48.388;16.210;2023-10-13T03:34:39;17.30;99.90
45685;DHT22;46836;48.388;16.210;2023-10-13T03:37:13;17.30;99.90
45685;DHT22;46836;48.388;16.210;2023-10-13T03:39:59;17.30;99.90
45685;DHT22;46836;48.388;16.210;2023-10-13T03:42:27;17.20;99.90
45685;DHT22;46836;48.388;16.210;2023-10-13T03:44:54;17.20;99.90
45685;DHT22;46836;48.388;16.210;2023-10-13T03:47:22;17.10;99.90
45685;DHT22;46836;48.388;16.210;2023-10-13T03:49:59;17.20;99.90
45685;DHT22;46836;48.388;16.210;2023-10-13T03:52:56;17.20;99.90
45685;DHT22;46836;48.388;16.210;2023-10-13T03:55:27;17.20;99.90
45685;DHT22;46836;48.388;16.210;2023-10-13T03:57:56;17.20;99.90
45685;DHT22;46836;48.388;16.210;2023-10-13T04:00:26;17.20;99.90
45685;DHT22;46836;48.388;16.210;2023-10-13T04:02:55;17.20;99.90
45685;DHT22;46836;48.388;16.210;2023-10-13T04:05:36;17.10;99.90
45685;DHT22;46836;48.388;16.210;2023-10-13T04:08:04;17.10;99.90
45685;DHT22;46836;48.388;16.210;2023-10-13T04:10:51;17.10;99.90
45685;DHT22;46836;48.388;16.210;2023-10-13T04:13:19;17.10;99.90
45685;DHT22;46836;48.388;16.210;2023-10-13T04:16:07;17.10;99.90
45685;DHT22;46836;48.388;16.210;2023-10-13T04:18:51;17.20;99.90
45685;DHT22;46836;48.388;16.210;2023-10-13T04:21:24;17.20;99.90
45685;DHT22;46836;48.388;16.210;2023-10-13T04:24:11;17.20;99.90
45685;DHT22;46836;48.388;16.210;2023-10-13T04:26:45;17.10;99.90
45685;DHT22;46836;48.388;16.210;2023-10-13T04:29:30;17.00;99.90
45685;DHT22;46836;48.388;16.210;2023-10-13T04:32:15;16.90;99.90
45685;DHT22;46836;48.388;16.210;2023-10-13T04:34:59;17.00;99.90
45685;DHT22;46836;48.388;16.210;2023-10-13T04:37:37;17.00;99.90
45685;DHT22;46836;48.388;16.210;2023-10-13T04:40:18;17.00;99.90
45685;DHT22;46836;48.388;16.210;2023-10-13T04:42:52;17.00;99.90
45685;DHT22;46836;48.388;16.210;2023-10-13T04:45:31;17.00;99.90
45685;DHT22;46836;48.388;16.210;2023-10-13T04:47:59;17.00;99.90
45685;DHT22;46836;48.388;16.210;2023-10-13T04:50:45;17.00;99.90
45685;DHT22;46836;48.388;16.210;2023-10-13T04:53:14;17.00;99.90
45685;DHT22;46836;48.388;16.210;2023-10-13T04:56:01;17.00;99.90
45685;DHT22;46836;48.388;16.210;2023-10-13T04:58:47;17.00;99.90
45685;DHT22;46836;48.388;16.210;2023-10-13T05:01:33;17.00;99.90
45685;DHT22;46836;48.388;16.210;2023-10-13T05:04:03;17.00;99.90
45685;DHT22;46836;48.388;16.210;2023-10-13T05:06:57;17.10;99.90
45685;DHT22;46836;48.388;16.210;2023-10-13T05:09:43;17.10;99.90
45685;DHT22;46836;48.388;16.210;2023-10-13T05:12:29;17.10;99.90
45685;DHT22;46836;48.388;16.210;2023-10-13T05:15:14;17.10;99.90
45685;DHT22;46836;48.388;16.210;2023-10-13T05:18:00;17.10;99.90
45685;DHT22;46836;48.388;16.210;2023-10-13T05:20:46;17.10;99.90
45685;DHT22;46836;48.388;16.210;2023-10-13T05:23:32;17.10;99.90
45685;DHT22;46836;48.388;16.210;2023-10-13T05:26:17;17.10;99.90
45685;DHT22;46836;48.388;16.210;2023-10-13T05:29:03;17.10;99.90
45685;DHT22;46836;48.388;16.210;2023-10-13T05:31:55;17.10;99.90
45685;DHT22;46836;48.388;16.210;2023-10-13T05:34:41;17.10;99.90
45685;DHT22;46836;48.388;16.210;2023-10-13T05:37:26;17.10;99.90
45685;DHT22;46836;48.388;16.210;2023-10-13T05:40:12;17.10;99.90
45685;DHT22;46836;48.388;16.210;2023-10-13T05:42:57;17.10;99.90
45685;DHT22;46836;48.388;16.210;2023-10-13T05:45:43;17.20;99.90
45685;DHT22;46836;48.388;16.210;2023-10-13T05:48:32;17.20;99.90
45685;DHT22;46836;48.388;16.210;2023-10-13T05:51:22;17.20;99.90
45685;DHT22;46836;48.388;16.210;2023-10-13T05:54:07;17.20;99.90
45685;DHT22;46836;48.388;16.210;2023-10-13T05:56:48;17.20;99.90
45685;DHT22;46836;48.388;16.210;2023-10-13T05:59:37;17.20;99.90
45685;DHT22;46836;48.388;16.210;2023-10-13T06:02:24;17.20;99.90
45685;DHT22;46836;48.388;16.210;2023-10-13T06:05:11;17.20;99.90
45685;DHT22;46836;48.388;16.210;2023-10-13T06:07:58;17.20;99.90
45685;DHT22;46836;48.388;16.210;2023-10-13T06:10:44;17.30;99.90
45685;DHT22;46836;48.388;16.210;2023-10-13T06:13:30;17.30;99.90
45685;DHT22;46836;48.388;16.210;2023-10-13T06:16:17;17.40;99.90
45685;DHT22;46836;48.388;16.210;2023-10-13T06:19:03;17.50;99.90
45685;DHT22;46836;48.388;16.210;2023-10-13T06:21:49;17.60;99.90
45685;DHT22;46836;48.388;16.210;2023-10-13T06:24:35;17.60;99.90
45685;DHT22;46836;48.388;16.210;2023-10-13T06:27:20;17.60;99.90
45685;DHT22;46836;48.388;16.210;2023-10-13T06:30:06;17.70;99.90
45685;DHT22;46836;48.388;16.210;2023-10-13T06:32:33;17.70;99.90
45685;DHT22;46836;48.388;16.210;2023-10-13T06:35:02;17.80;99.90
45685;DHT22;46836;48.388;16.210;2023-10-13T06:37:45;17.90;99.90
45685;DHT22;46836;48.388;16.210;2023-10-13T06:40:14;17.90;99.90
45685;DHT22;46836;48.388;16.210;2023-10-13T06:42:55;18.00;99.90
45685;DHT22;46836;48.388;16.210;2023-10-13T06:45:45;18.00;99.90
45685;DHT22;46836;48.388;16.210;2023-10-13T06:48:28;18.10;99.90
45685;DHT22;46836;48.388;16.210;2023-10-13T06:51:01;18.10;99.90
45685;DHT22;46836;48.388;16.210;2023-10-13T06:53:39;18.10;99.90
45685;DHT22;46836;48.388;16.210;2023-10-13T06:56:17;18.20;99.90
45685;DHT22;46836;48.388;16.210;2023-10-13T06:58:54;18.30;99.90
45685;DHT22;46836;48.388;16.210;2023-10-13T07:01:27;18.30;99.90
45685;DHT22;46836;48.388;16.210;2023-10-13T07:03:55;18.40;99.90
45685;DHT22;46836;48.388;16.210;2023-10-13T07:06:28;18.50;99.90
45685;DHT22;46836;48.388;16.210;2023-10-13T07:08:57;18.50;99.90
45685;DHT22;46836;48.388;16.210;2023-10-13T07:11:25;18.60;99.90
45685;DHT22;46836;48.388;16.210;2023-10-13T07:14:04;18.80;99.90
45685;DHT22;46836;48.388;16.210;2023-10-13T07:16:54;18.90;99.90
45685;DHT22;46836;48.388;16.210;2023-10-13T07:19:26;19.10;99.90
45685;DHT22;46836;48.388;16.210;2023-10-13T07:21:57;19.20;99.90
45685;DHT22;46836;48.388;16.210;2023-10-13T07:24:48;19.20;99.90
45685;DHT22;46836;48.388;16.210;2023-10-13T07:27:20;19.30;99.90
45685;DHT22;46836;48.388;16.210;2023-10-13T07:29:55;19.30;99.90
45685;DHT22;46836;48.388;16.210;2023-10-13T07:32:43;19.50;99.90
45685;DHT22;46836;48.388;16.210;2023-10-13T07:35:18;19.50;99.90
45685;DHT22;46836;48.388;16.210;2023-10-13T07:37:53;19.70;99.90
45685;DHT22;46836;48.388;16.210;2023-10-13T07:40:22;19.90;99.90
45685;DHT22;46836;48.388;16.210;2023-10-13T07:43:09;20.00;99.90
45685;DHT22;46836;48.388;16.210;2023-10-13T07:45:38;20.10;99.90
45685;DHT22;46836;48.388;16.210;2023-10-13T07:48:10;20.30;99.90
45685;DHT22;46836;48.388;16.210;2023-10-13T07:51:03;20.40;99.90
45685;DHT22;46836;48.388;16.210;2023-10-13T07:53:32;20.50;99.90
45685;DHT22;46836;48.388;16.210;2023-10-13T07:56:07;20.60;99.90
45685;DHT22;46836;48.388;16.210;2023-10-13T07:58:46;20.80;99.90
45685;DHT22;46836;48.388;16.210;2023-10-13T08:01:42;20.90;99.90
45685;DHT22;46836;48.388;16.210;2023-10-13T08:04:10;21.10;99.90
45685;DHT22;46836;48.388;16.210;2023-10-13T08:06:41;21.00;99.90
45685;DHT22;46836;48.388;16.210;2023-10-13T08:09:11;21.10;99.90
45685;DHT22;46836;48.388;16.210;2023-10-13T08:11:57;21.20;99.90
45685;DHT22;46836;48.388;16.210;2023-10-13T08:14:24;21.30;99.90
45685;DHT22;46836;48.388;16.210;2023-10-13T08:17:08;21.40;99.90
45685;DHT22;46836;48.388;16.210;2023-10-13T08:19:39;21.70;99.90
45685;DHT22;46836;48.388;16.210;2023-10-13T08:22:09;21.90;99.90
45685;DHT22;46836;48.388;16.210;2023-10-13T08:24:47;22.20;99.90
45685;DHT22;46836;48.388;16.210;2023-10-13T08:27:19;22.30;99.90
45685;DHT22;46836;48.388;16.210;2023-10-13T08:30:03;22.50;99.90
45685;DHT22;46836;48.388;16.210;2023-10-13T08:32:50;22.70;99.90
45685;DHT22;46836;48.388;16.210;2023-10-13T08:35:44;22.70;99.90
45685;DHT22;46836;48.388;16.210;2023-10-13T08:38:21;22.80;99.90
45685;DHT22;46836;48.388;16.210;2023-10-13T08:40:59;22.80;99.90
45685;DHT22;46836;48.388;16.210;2023-10-13T08:44:02;22.90;99.90
45685;DHT22;46836;48.388;16.210;2023-10-13T08:46:31;23.00;99.90
45685;DHT22;46836;48.388;16.210;2023-10-13T08:49:19;23.10;99.90
45685;DHT22;46836;48.388;16.210;2023-10-13T08:51:51;23.20;99.90
45685;DHT22;46836;48.388;16.210;2023-10-13T08:54:38;23.20;99.90
45685;DHT22;46836;48.388;16.210;2023-10-13T08:57:12;23.30;99.90
45685;DHT22;46836;48.388;16.210;2023-10-13T09:00:08;23.30;99.90
45685;DHT22;46836;48.388;16.210;2023-10-13T09:03:14;23.30;99.90
45685;DHT22;46836;48.388;16.210;2023-10-13T09:06:08;23.30;99.90
45685;DHT22;46836;48.388;16.210;2023-10-13T09:08:42;23.40;99.90
45685;DHT22;46836;48.388;16.210;2023-10-13T09:11:33;23.40;99.90
45685;DHT22;46836;48.388;16.210;2023-10-13T09:14:16;23.50;99.90
45685;DHT22;46836;48.388;16.210;2023-10-13T09:17:07;23.50;99.90
45685;DHT22;46836;48.388;16.210;2023-10-13T09:19:51;23.70;99.90
45685;DHT22;46836;48.388;16.210;2023-10-13T09:22:26;23.80;99.90
45685;DHT22;46836;48.388;16.210;2023-10-13T09:25:03;24.00;99.90
45685;DHT22;46836;48.388;16.210;2023-10-13T09:27:40;24.20;99.90
45685;DHT22;46836;48.388;16.210;2023-10-13T09:30:08;24.30;99.90
45685;DHT22;46836;48.388;16.210;2023-10-13T09:33:02;24.40;99.90
45685;DHT22;46836;48.388;16.210;2023-10-13T09:35:31;24.50;99.90
45685;DHT22;46836;48.388;16.210;2023-10-13T09:38:03;24.50;99.90
45685;DHT22;46836;48.388;16.210;2023-10-13T09:40:31;24.60;99.90
45685;DHT22;46836;48.388;16.210;2023-10-13T09:43:13;24.70;99.90
45685;DHT22;46836;48.388;16.210;2023-10-13T09:45:49;24.80;99.90
45685;DHT22;46836;48.388;16.210;2023-10-13T09:48:45;24.90;99.90
45685;DHT22;46836;48.388;16.210;2023-10-13T09:51:17;24.90;99.90
45685;DHT22;46836;48.388;16.210;2023-10-13T09:53:56;25.00;99.90
45685;DHT22;46836;48.388;16.210;2023-10-13T09:56:35;25.10;99.90
45685;DHT22;46836;48.388;16.210;2023-10-13T09:59:26;25.10;99.90
45685;DHT22;46836;48.388;16.210;2023-10-13T10:02:05;25.20;99.90
45685;DHT22;46836;48.388;16.210;2023-10-13T10:04:36;25.20;99.90
45685;DHT22;46836;48.388;16.210;2023-10-13T10:07:12;25.30;99.90
45685;DHT22;46836;48.388;16.210;2023-10-13T10:09:56;25.30;99.90
45685;DHT22;46836;48.388;16.210;2023-10-13T10:17:47;25.60;99.90
45685;DHT22;46836;48.388;16.210;2023-10-13T10:20:28;25.50;99.90
45685;DHT22;46836;48.388;16.210;2023-10-13T10:23:06;25.60;99.90
45685;DHT22;46836;48.388;16.210;2023-10-13T10:25:48;25.50;99.90
45685;DHT22;46836;48.388;16.210;2023-10-13T10:28:17;25.60;99.90
45685;DHT22;46836;48.388;16.210;2023-10-13T10:30:46;25.70;99.90
45685;DHT22;46836;48.388;16.210;2023-10-13T10:33:13;25.70;99.90
45685;DHT22;46836;48.388;16.210;2023-10-13T10:35:43;25.70;99.90
45685;DHT22;46836;48.388;16.210;2023-10-13T10:41:03;25.80;99.90
45685;DHT22;46836;48.388;16.210;2023-10-13T10:46:18;25.90;99.90
45685;DHT22;46836;48.388;16.210;2023-10-13T10:48:45;26.00;99.90
45685;DHT22;46836;48.388;16.210;2023-10-13T10:51:14;26.10;99.90
45685;DHT22;46836;48.388;16.210;2023-10-13T10:53:55;26.20;99.90
45685;DHT22;46836;48.388;16.210;2023-10-13T10:56:25;26.20;99.90
45685;DHT22;46836;48.388;16.210;2023-10-13T10:59:07;26.30;99.90
45685;DHT22;46836;48.388;16.210;2023-10-13T11:01:46;26.40;99.90
45685;DHT22;46836;48.388;16.210;2023-10-13T11:04:19;26.50;99.90
45685;DHT22;46836;48.388;16.210;2023-10-13T11:09:29;26.60;99.90
45685;DHT22;46836;48.388;16.210;2023-10-13T11:12:14;26.60;99.90
45685;DHT22;46836;48.388;16.210;2023-10-13T11:14:45;26.70;99.90
45685;DHT22;46836;48.388;16.210;2023-10-13T11:17:21;26.70;99.90
45685;DHT22;46836;48.388;16.210;2023-10-13T11:19:53;26.80;99.90
45685;DHT22;46836;48.388;16.210;2023-10-13T11:22:22;26.80;99.90
45685;DHT22;46836;48.388;16.210;2023-10-13T11:25:30;26.90;99.90
45685;DHT22;46836;48.388;16.210;2023-10-13T11:28:16;27.00;99.90
45685;DHT22;46836;48.388;16.210;2023-10-13T11:30:47;27.00;99.90
45685;DHT22;46836;48.388;16.210;2023-10-13T11:33:18;27.00;99.90
45685;DHT22;46836;48.388;16.210;2023-10-13T11:35:50;27.10;99.90
45685;DHT22;46836;48.388;16.210;2023-10-13T11:38:28;27.10;99.90
45685;DHT22;46836;48.388;16.210;2023-10-13T11:41:13;27.20;99.90
45685;DHT22;46836;48.388;16.210;2023-10-13T11:43:51;27.20;99.90
45685;DHT22;46836;48.388;16.210;2023-10-13T11:46:19;27.10;99.90
45685;DHT22;46836;48.388;16.210;2023-10-13T11:49:10;27.20;99.90
45685;DHT22;46836;48.388;16.210;2023-10-13T11:51:41;27.20;99.90
45685;DHT22;46836;48.388;16.210;2023-10-13T11:54:18;27.30;99.90
45685;DHT22;46836;48.388;16.210;2023-10-13T11:56:46;27.30;99.90
45685;DHT22;46836;48.388;16.210;2023-10-13T11:59:14;27.40;99.90
45685;DHT22;46836;48.388;16.210;2023-10-13T12:01:51;27.50;99.90
45685;DHT22;46836;48.388;16.210;2023-10-13T12:04:39;27.60;99.90
45685;DHT22;46836;48.388;16.210;2023-10-13T12:07:22;27.60;99.90
45685;DHT22;46836;48.388;16.210;2023-10-13T12:10:08;27.70;99.90
45685;DHT22;46836;48.388;16.210;2023-10-13T12:12:54;27.70;99.90
45685;DHT22;46836;48.388;16.210;2023-10-13T12:15:21;27.80;99.90
45685;DHT22;46836;48.388;16.210;2023-10-13T12:18:04;27.90;99.90
45685;DHT22;46836;48.388;16.210;2023-10-13T12:20:32;27.90;99.90
45685;DHT22;46836;48.388;16.210;2023-10-13T12:23:00;27.90;99.90
45685;DHT22;46836;48.388;16.210;2023-10-13T12:25:38;28.00;99.90
45685;DHT22;46836;48.388;16.210;2023-10-13T12:28:23;28.10;99.90
45685;DHT22;46836;48.388;16.210;2023-10-13T12:30:56;28.10;99.90
45685;DHT22;46836;48.388;16.210;2023-10-13T12:33:25;28.10;99.90
45685;DHT22;46836;48.388;16.210;2023-10-13T12:36:04;28.10;99.90
45685;DHT22;46836;48.388;16.210;2023-10-13T12:38:41;28.10;99.90
45685;DHT22;46836;48.388;16.210;2023-10-13T12:41:15;28.10;99.90
45685;DHT22;46836;48.388;16.210;2023-10-13T12:44:06;28.10;99.90
45685;DHT22;46836;48.388;16.210;2023-10-13T12:46:52;28.00;99.90
45685;DHT22;46836;48.388;16.210;2023-10-13T12:49:39;27.80;99.90
45685;DHT22;46836;48.388;16.210;2023-10-13T12:52:10;27.80;99.90
45685;DHT22;46836;48.388;16.210;2023-10-13T12:54:44;27.60;99.90
45685;DHT22;46836;48.388;16.210;2023-10-13T12:57:21;27.60;99.90
45685;DHT22;46836;48.388;16.210;2023-10-13T12:59:50;27.60;99.90
45685;DHT22;46836;48.388;16.210;2023-10-13T13:02:24;27.60;99.90
45685;DHT22;46836;48.388;16.210;2023-10-13T13:04:53;27.60;99.90
45685;DHT22;46836;48.388;16.210;2023-10-13T13:07:33;27.60;99.90
45685;DHT22;46836;48.388;16.210;2023-10-13T13:10:11;27.60;99.90
45685;DHT22;46836;48.388;16.210;2023-10-13T13:12:43;27.60;99.90
45685;DHT22;46836;48.388;16.210;2023-10-13T13:15:10;27.70;99.90
45685;DHT22;46836;48.388;16.210;2023-10-13T13:17:39;27.70;99.90
45685;DHT22;46836;48.388;16.210;2023-10-13T13:20:07;27.80;99.90
45685;DHT22;46836;48.388;16.210;2023-10-13T13:22:38;27.80;99.90
45685;DHT22;46836;48.388;16.210;2023-10-13T13:25:06;27.90;99.20
45685;DHT22;46836;48.388;16.210;2023-10-13T13:27:36;27.90;99.30
45685;DHT22;46836;48.388;16.210;2023-10-13T13:30:09;28.00;98.40
45685;DHT22;46836;48.388;16.210;2023-10-13T13:32:40;28.00;98.90
45685;DHT22;46836;48.388;16.210;2023-10-13T13:35:13;28.00;98.10
45685;DHT22;46836;48.388;16.210;2023-10-13T13:37:45;28.00;98.90
45685;DHT22;46836;48.388;16.210;2023-10-13T13:40:12;28.10;99.00
45685;DHT22;46836;48.388;16.210;2023-10-13T13:42:43;28.00;99.90
45685;DHT22;46836;48.388;16.210;2023-10-13T13:45:18;28.00;99.90
45685;DHT22;46836;48.388;16.210;2023-10-13T13:47:49;28.00;99.20
45685;DHT22;46836;48.388;16.210;2023-10-13T13:50:27;27.90;99.60
45685;DHT22;46836;48.388;16.210;2023-10-13T13:53:05;27.90;97.90
45685;DHT22;46836;48.388;16.210;2023-10-13T13:55:36;27.90;99.30
45685;DHT22;46836;48.388;16.210;2023-10-13T13:58:07;27.90;99.20
45685;DHT22;46836;48.388;16.210;2023-10-13T14:00:37;27.80;99.70
45685;DHT22;46836;48.388;16.210;2023-10-13T14:03:05;27.80;98.80
45685;DHT22;46836;48.388;16.210;2023-10-13T14:05:43;27.80;99.40
45685;DHT22;46836;48.388;16.210;2023-10-13T14:08:10;27.80;98.00
45685;DHT22;46836;48.388;16.210;2023-10-13T14:10:42;27.70;98.00
45685;DHT22;46836;48.388;16.210;2023-10-13T14:13:28;27.70;99.20
45685;DHT22;46836;48.388;16.210;2023-10-13T14:16:26;27.70;98.90
45685;DHT22;46836;48.388;16.210;2023-10-13T14:18:53;27.60;99.20
45685;DHT22;46836;48.388;16.210;2023-10-13T14:21:20;27.60;99.80
45685;DHT22;46836;48.388;16.210;2023-10-13T14:23:52;27.60;99.90
45685;DHT22;46836;48.388;16.210;2023-10-13T14:26:21;27.50;99.70
45685;DHT22;46836;48.388;16.210;2023-10-13T14:28:52;27.50;99.90
45685;DHT22;46836;48.388;16.210;2023-10-13T14:31:41;27.40;99.90
45685;DHT22;46836;48.388;16.210;2023-10-13T14:34:08;27.30;99.90
45685;DHT22;46836;48.388;16.210;2023-10-13T14:36:35;27.30;99.90
45685;DHT22;46836;48.388;16.210;2023-10-13T14:39:05;27.30;99.90
45685;DHT22;46836;48.388;16.210;2023-10-13T14:41:38;27.20;99.90
45685;DHT22;46836;48.388;16.210;2023-10-13T14:44:06;27.20;99.90
45685;DHT22;46836;48.388;16.210;2023-10-13T14:46:34;27.10;99.90
45685;DHT22;46836;48.388;16.210;2023-10-13T14:49:06;27.00;99.90
45685;DHT22;46836;48.388;16.210;2023-10-13T14:51:33;27.00;99.90
45685;DHT22;46836;48.388;16.210;2023-10-13T14:54:07;26.90;99.90
45685;DHT22;46836;48.388;16.210;2023-10-13T14:56:34;26.90;99.90
45685;DHT22;46836;48.388;16.210;2023-10-13T14:59:01;26.80;99.90
45685;DHT22;46836;48.388;16.210;2023-10-13T15:01:32;26.80;99.90
45685;DHT22;46836;48.388;16.210;2023-10-13T15:03:59;26.70;99.90
45685;DHT22;46836;48.388;16.210;2023-10-13T15:06:27;26.70;99.90
45685;DHT22;46836;48.388;16.210;2023-10-13T15:08:58;26.70;99.90
45685;DHT22;46836;48.388;16.210;2023-10-13T15:11:27;26.60;99.90
45685;DHT22;46836;48.388;16.210;2023-10-13T15:14:15;26.50;99.90
45685;DHT22;46836;48.388;16.210;2023-10-13T15:16:42;26.40;99.90
45685;DHT22;46836;48.388;16.210;2023-10-13T15:19:10;26.30;99.90
45685;DHT22;46836;48.388;16.210;2023-10-13T15:21:39;26.20;99.90
45685;DHT22;46836;48.388;16.210;2023-10-13T15:24:07;26.00;99.90
45685;DHT22;46836;48.388;16.210;2023-10-13T15:26:46;25.90;99.90
45685;DHT22;46836;48.388;16.210;2023-10-13T15:29:17;25.80;99.90
45685;DHT22;46836;48.388;16.210;2023-10-13T15:31:45;25.70;99.90
45685;DHT22;46836;48.388;16.210;2023-10-13T15:34:32;25.50;99.90
45685;DHT22;46836;48.388;16.210;2023-10-13T15:37:00;25.40;99.90
45685;DHT22;46836;48.388;16.210;2023-10-13T15:39:32;25.30;99.90
45685;DHT22;46836;48.388;16.210;2023-10-13T15:41:59;25.20;99.90
45685;DHT22;46836;48.388;16.210;2023-10-13T15:44:27;25.10;99.90
45685;DHT22;46836;48.388;16.210;2023-10-13T15:46:58;25.00;99.90
45685;DHT22;46836;48.388;16.210;2023-10-13T15:49:31;24.90;99.90
45685;DHT22;46836;48.388;16.210;2023-10-13T15:52:01;24.80;99.90
45685;DHT22;46836;48.388;16.210;2023-10-13T15:54:30;24.70;99.90
45685;DHT22;46836;48.388;16.210;2023-10-13T15:56:58;24.60;99.90
45685;DHT22;46836;48.388;16.210;2023-10-13T15:59:25;24.50;99.90
45685;DHT22;46836;48.388;16.210;2023-10-13T16:01:53;24.50;99.90
45685;DHT22;46836;48.388;16.210;2023-10-13T16:04:25;24.40;99.90
45685;DHT22;46836;48.388;16.210;2023-10-13T16:06:52;24.20;99.90
45685;DHT22;46836;48.388;16.210;2023-10-13T16:09:20;24.10;99.90
45685;DHT22;46836;48.388;16.210;2023-10-13T16:11:52;24.10;99.90
45685;DHT22;46836;48.388;16.210;2023-10-13T16:14:20;24.00;99.90
45685;DHT22;46836;48.388;16.210;2023-10-13T16:16:49;23.90;99.90
45685;DHT22;46836;48.388;16.210;2023-10-13T16:19:21;23.80;99.90
45685;DHT22;46836;48.388;16.210;2023-10-13T16:21:50;23.70;99.90
45685;DHT22;46836;48.388;16.210;2023-10-13T16:24:18;23.60;99.90